createdAt,value
2017-03-09T00:01:00.138Z,24.24
2017-03-09T00:02:13.481Z,24.21
2017-03-09T00:03:27.015Z,24.23
2017-03-09T00:04:40.347Z,24.24
2017-03-09T00:05:53.659Z,24.21
2017-03-09T00:07:07.214Z,24.19
2017-03-09T00:08:21.740Z,24.27
2017-03-09T00:09:35.048Z,24.27
2017-03-09T00:10:48.385Z,24.24
2017-03-09T00:12:01.722Z,24.31
2017-03-09T00:13:15.059Z,24.36
2017-03-09T00:14:28.387Z,24.3
2017-03-09T00:15:41.143Z,24.27
2017-03-09T00:16:54.462Z,24.31
2017-03-09T00:18:07.804Z,24.19
2017-03-09T00:19:21.177Z,24.19
2017-03-09T00:20:34.708Z,24.19
2017-03-09T00:21:48.034Z,24.18
2017-03-09T00:23:01.394Z,24.18
2017-03-09T00:24:15.330Z,24.18
2017-03-09T00:25:28.129Z,24.19
2017-03-09T00:26:55.620Z,24.23
2017-03-09T00:28:08.972Z,24.14
2017-03-09T00:29:22.294Z,24.18
2017-03-09T00:30:35.369Z,24.19
2017-03-09T00:31:48.688Z,24.21
2017-03-09T00:33:01.439Z,24.18
2017-03-09T00:34:28.701Z,24.19
2017-03-09T00:35:42.012Z,24.18
2017-03-09T00:36:55.362Z,24.27
2017-03-09T00:38:08.100Z,24.27
2017-03-09T00:39:21.459Z,24.37
2017-03-09T00:40:34.816Z,24.41
2017-03-09T00:41:48.138Z,24.34
2017-03-09T00:43:01.480Z,24.3
2017-03-09T00:44:14.813Z,24.33
2017-03-09T00:45:28.153Z,24.34
2017-03-09T00:46:41.483Z,24.3
2017-03-09T00:47:54.804Z,24.29
2017-03-09T00:49:08.115Z,24.21
2017-03-09T00:50:35.404Z,24.24
2017-03-09T00:53:16.237Z,24.23
2017-03-09T00:54:29.555Z,24.21
2017-03-09T00:55:42.892Z,24.21
2017-03-09T00:56:56.459Z,24.3
2017-03-09T00:58:09.787Z,24.23
2017-03-09T00:59:22.530Z,24.27
2017-03-09T01:00:35.861Z,24.21
2017-03-09T01:01:49.276Z,24.27
2017-03-09T01:03:02.605Z,24.23
2017-03-09T01:04:15.995Z,24.15
2017-03-09T01:05:29.326Z,24.21
2017-03-09T01:06:42.670Z,24.24
2017-03-09T01:07:56.197Z,24.33
2017-03-09T01:09:09.534Z,24.34
2017-03-09T01:12:18.075Z,24.23
2017-03-09T01:13:31.384Z,24.29
2017-03-09T01:14:44.805Z,24.15
2017-03-09T01:15:58.354Z,24.19
2017-03-09T01:17:11.122Z,24.16
2017-03-09T01:18:24.417Z,24.18
2017-03-09T01:19:37.747Z,24.24
2017-03-09T01:20:51.088Z,24.19
2017-03-09T01:22:18.391Z,24.16
2017-03-09T01:23:31.159Z,24.19
2017-03-09T01:24:44.488Z,24.21
2017-03-09T01:25:57.830Z,24.15
2017-03-09T01:27:10.632Z,24.14
2017-03-09T01:28:23.992Z,24.12
2017-03-09T01:29:37.539Z,24.14
2017-03-09T01:31:04.846Z,24.08
2017-03-09T01:32:17.681Z,24.18
2017-03-09T01:33:45.025Z,24.05
2017-03-09T01:34:58.359Z,24.09
2017-03-09T01:36:11.686Z,24.12
2017-03-09T01:37:24.448Z,24.12
2017-03-09T01:38:37.795Z,24.12
2017-03-09T01:39:51.127Z,24.06
2017-03-09T01:41:04.499Z,24.08
2017-03-09T01:42:17.842Z,24.12
2017-03-09T01:43:31.170Z,24.05
2017-03-09T01:44:43.959Z,24.11
2017-03-09T01:45:57.310Z,24.15
2017-03-09T01:47:10.628Z,24.15
2017-03-09T01:48:23.394Z,24.15
2017-03-09T01:49:36.756Z,24.15
2017-03-09T01:50:50.096Z,24.06
2017-03-09T01:52:03.661Z,24.09
2017-03-09T01:53:17.005Z,24.11
2017-03-09T01:54:30.402Z,24.11
2017-03-09T01:55:43.759Z,24.09
2017-03-09T01:56:57.304Z,24.24
2017-03-09T01:58:10.059Z,24.18
2017-03-09T01:59:23.384Z,24.11
2017-03-09T02:00:36.736Z,24.19
2017-03-09T02:01:50.084Z,24.16
2017-03-09T02:03:03.616Z,24.26
2017-03-09T02:04:31.116Z,24.18
2017-03-09T02:05:58.430Z,24.15
2017-03-09T02:07:11.971Z,24.23
2017-03-09T02:08:25.535Z,24.26
2017-03-09T02:09:38.862Z,24.23
2017-03-09T02:10:52.392Z,24.19
2017-03-09T02:12:05.723Z,24.18
2017-03-09T02:13:18.860Z,24.18
2017-03-09T02:14:32.196Z,24.18
2017-03-09T02:15:45.518Z,24.23
2017-03-09T02:17:12.531Z,24.21
2017-03-09T02:18:25.297Z,24
2017-03-09T02:19:38.638Z,24
2017-03-09T02:20:51.992Z,23.92
2017-03-09T02:22:05.332Z,23.94
2017-03-09T02:23:18.101Z,23.99
2017-03-09T02:24:45.431Z,23.97
2017-03-09T02:25:58.742Z,24
2017-03-09T02:27:12.114Z,23.99
2017-03-09T02:28:25.312Z,24.04
2017-03-09T02:29:38.955Z,24.02
2017-03-09T02:30:52.642Z,23.94
2017-03-09T02:32:06.095Z,23.92
2017-03-09T02:33:33.454Z,23.87
2017-03-09T02:34:47.145Z,23.89
2017-03-09T02:36:00.762Z,23.89
2017-03-09T02:37:27.531Z,23.97
2017-03-09T02:38:40.526Z,23.96
2017-03-09T02:39:53.914Z,23.97
2017-03-09T02:41:07.283Z,23.96
2017-03-09T02:42:20.057Z,24
2017-03-09T02:43:34.385Z,23.96
2017-03-09T02:44:47.946Z,23.99
2017-03-09T02:46:00.710Z,23.97
2017-03-09T02:47:14.040Z,24.02
2017-03-09T02:48:27.385Z,23.93
2017-03-09T02:49:40.718Z,23.97
2017-03-09T02:50:54.071Z,24.04
2017-03-09T02:52:07.418Z,24.11
2017-03-09T02:53:20.760Z,24.05
2017-03-09T02:54:33.561Z,24.04
2017-03-09T02:55:46.929Z,24.02
2017-03-09T02:57:00.275Z,24.05
2017-03-09T02:58:13.051Z,23.99
2017-03-09T02:59:26.391Z,24.05
2017-03-09T03:00:39.323Z,24.06
2017-03-09T03:01:52.664Z,24
2017-03-09T03:03:06.194Z,23.94
2017-03-09T03:04:19.557Z,23.9
2017-03-09T03:05:32.918Z,23.81
2017-03-09T03:06:46.481Z,23.75
2017-03-09T03:07:58.679Z,23.74
2017-03-09T03:09:12.016Z,23.84
2017-03-09T03:10:24.772Z,23.89
2017-03-09T03:11:38.277Z,23.9
2017-03-09T03:12:51.049Z,23.86
2017-03-09T03:14:04.381Z,23.96
2017-03-09T03:15:17.713Z,23.92
2017-03-09T03:16:31.054Z,23.99
2017-03-09T03:17:44.016Z,23.99
2017-03-09T03:18:57.386Z,24.02
2017-03-09T03:20:24.716Z,23.96
2017-03-09T03:21:38.366Z,23.97
2017-03-09T03:22:51.706Z,23.97
2017-03-09T03:24:05.414Z,23.99
2017-03-09T03:25:18.738Z,23.97
2017-03-09T03:26:30.952Z,24
2017-03-09T03:27:44.473Z,23.9
2017-03-09T03:28:57.823Z,24
2017-03-09T03:30:11.201Z,23.99
2017-03-09T03:31:23.365Z,23.96
2017-03-09T03:32:36.136Z,23.9
2017-03-09T03:33:49.463Z,23.96
2017-03-09T03:35:02.798Z,23.96
2017-03-09T03:36:16.180Z,23.93
2017-03-09T03:37:29.500Z,23.99
2017-03-09T03:38:42.832Z,23.89
2017-03-09T03:39:56.017Z,23.93
2017-03-09T03:41:09.360Z,23.93
2017-03-09T03:42:22.695Z,24
2017-03-09T03:43:36.235Z,23.94
2017-03-09T03:44:49.561Z,24
2017-03-09T03:46:02.895Z,23.86
2017-03-09T03:47:16.200Z,23.9
2017-03-09T03:48:29.555Z,23.92
2017-03-09T03:49:42.898Z,23.96
2017-03-09T03:50:56.206Z,23.96
2017-03-09T03:52:09.527Z,23.99
2017-03-09T03:53:22.858Z,23.93
2017-03-09T03:54:35.824Z,23.92
2017-03-09T03:55:49.139Z,23.92
2017-03-09T03:57:02.469Z,23.89
2017-03-09T03:58:15.802Z,23.84
2017-03-09T03:59:29.136Z,23.77
2017-03-09T04:00:42.444Z,23.81
2017-03-09T04:01:55.783Z,23.77
2017-03-09T04:03:09.112Z,23.75
2017-03-09T04:04:23.159Z,23.84
2017-03-09T04:05:36.133Z,23.75
2017-03-09T04:08:30.747Z,23.84
2017-03-09T04:09:44.051Z,23.87
2017-03-09T04:10:57.057Z,23.74
2017-03-09T04:13:37.673Z,23.84
2017-03-09T04:14:50.996Z,23.75
2017-03-09T04:16:04.332Z,23.87
2017-03-09T04:17:17.661Z,23.84
2017-03-09T04:18:30.986Z,23.9
2017-03-09T04:19:44.313Z,23.93
2017-03-09T04:20:57.653Z,23.92
2017-03-09T04:22:11.171Z,23.92
2017-03-09T04:23:24.516Z,23.99
2017-03-09T04:24:51.788Z,23.99
2017-03-09T04:26:05.108Z,23.96
2017-03-09T04:27:18.422Z,24.04
2017-03-09T04:28:45.706Z,23.87
2017-03-09T04:29:59.032Z,23.77
2017-03-09T04:31:12.336Z,23.71
2017-03-09T04:32:24.513Z,23.63
2017-03-09T04:33:37.264Z,23.53
2017-03-09T04:34:50.562Z,23.6
2017-03-09T04:36:03.288Z,23.62
2017-03-09T04:37:16.888Z,23.63
2017-03-09T04:38:29.636Z,23.69
2017-03-09T04:39:42.949Z,23.77
2017-03-09T04:40:56.292Z,23.78
2017-03-09T04:42:09.750Z,23.77
2017-03-09T04:43:22.477Z,23.74
2017-03-09T04:44:35.201Z,23.77
2017-03-09T04:45:48.525Z,23.78
2017-03-09T04:47:01.826Z,23.71
2017-03-09T04:48:15.426Z,23.86
2017-03-09T04:49:42.698Z,23.9
2017-03-09T04:50:56.019Z,23.81
2017-03-09T04:52:09.337Z,23.69
2017-03-09T04:53:22.635Z,23.74
2017-03-09T04:54:35.943Z,23.89
2017-03-09T04:55:49.229Z,23.84
2017-03-09T04:57:16.122Z,23.92
2017-03-09T04:58:29.406Z,23.96
2017-03-09T04:59:42.698Z,23.99
2017-03-09T05:00:55.995Z,23.94
2017-03-09T05:02:09.275Z,23.96
2017-03-09T05:03:22.553Z,24.02
2017-03-09T05:04:35.848Z,24.04
2017-03-09T05:05:49.145Z,24.05
2017-03-09T05:07:02.426Z,23.99
2017-03-09T05:09:57.145Z,23.9
2017-03-09T05:11:10.431Z,23.86
2017-03-09T05:12:37.685Z,23.87
2017-03-09T05:13:51.171Z,23.87
2017-03-09T05:15:04.452Z,23.87
2017-03-09T05:16:17.761Z,23.89
2017-03-09T05:17:30.476Z,23.84
2017-03-09T05:18:57.734Z,23.86
2017-03-09T05:20:11.022Z,23.89
2017-03-09T05:21:37.718Z,23.87
2017-03-09T05:22:51.002Z,23.84
2017-03-09T05:24:18.261Z,23.74
2017-03-09T05:25:31.563Z,23.74
2017-03-09T05:26:44.279Z,23.75
2017-03-09T05:27:57.570Z,23.74
2017-03-09T05:29:10.852Z,23.69
2017-03-09T05:30:24.333Z,23.75
2017-03-09T05:31:36.479Z,23.69
2017-03-09T05:32:49.756Z,23.78
2017-03-09T05:34:02.479Z,23.71
2017-03-09T05:35:16.060Z,23.72
2017-03-09T05:36:28.774Z,23.84
2017-03-09T05:37:42.038Z,23.84
2017-03-09T05:38:55.304Z,23.87
2017-03-09T05:40:08.035Z,23.84
2017-03-09T05:41:21.341Z,23.75
2017-03-09T05:42:34.627Z,23.89
2017-03-09T05:43:47.333Z,23.87
2017-03-09T05:45:00.622Z,23.86
2017-03-09T05:46:14.138Z,23.87
2017-03-09T05:47:27.404Z,23.87
2017-03-09T05:48:40.105Z,23.82
2017-03-09T05:49:53.392Z,23.77
2017-03-09T05:51:05.545Z,23.74
2017-03-09T05:52:19.017Z,23.71
2017-03-09T05:53:32.301Z,23.72
2017-03-09T05:54:45.614Z,23.78
2017-03-09T05:55:58.903Z,23.71
2017-03-09T05:57:12.488Z,23.77
2017-03-09T05:58:25.764Z,23.86
2017-03-09T05:59:39.061Z,23.71
2017-03-09T06:00:51.789Z,23.74
2017-03-09T06:02:05.085Z,23.78
2017-03-09T06:03:18.548Z,23.74
2017-03-09T06:04:31.843Z,23.68
2017-03-09T06:05:45.110Z,23.72
2017-03-09T06:06:58.389Z,23.69
2017-03-09T06:08:11.311Z,23.74
2017-03-09T06:09:24.027Z,23.72
2017-03-09T06:10:36.745Z,23.72
2017-03-09T06:12:04.031Z,23.77
2017-03-09T06:13:17.521Z,23.77
2017-03-09T06:14:30.233Z,23.68
2017-03-09T06:15:42.936Z,23.74
2017-03-09T06:16:56.225Z,23.71
2017-03-09T06:18:23.779Z,23.72
2017-03-09T06:19:36.493Z,23.64
2017-03-09T06:20:49.789Z,23.71
2017-03-09T06:22:03.068Z,23.74
2017-03-09T06:24:43.348Z,23.74
2017-03-09T06:25:56.619Z,23.72
2017-03-09T06:27:09.333Z,23.71
2017-03-09T06:28:22.632Z,23.68
2017-03-09T06:29:36.136Z,23.71
2017-03-09T06:30:49.416Z,23.69
2017-03-09T06:32:02.691Z,23.77
2017-03-09T06:33:15.967Z,23.69
2017-03-09T06:34:28.673Z,23.72
2017-03-09T06:35:41.950Z,23.75
2017-03-09T06:36:55.225Z,23.63
2017-03-09T06:38:08.501Z,23.45
2017-03-09T06:39:21.207Z,23.38
2017-03-09T06:40:34.797Z,23.41
2017-03-09T06:41:48.073Z,23.35
2017-03-09T06:43:00.799Z,23.22
2017-03-09T06:44:14.087Z,23.14
2017-03-09T06:45:27.349Z,23.03
2017-03-09T06:46:54.619Z,23
2017-03-09T06:48:07.906Z,23.14
2017-03-09T06:49:20.087Z,23.16
2017-03-09T06:50:32.803Z,23.22
2017-03-09T06:52:00.062Z,23.25
2017-03-09T06:53:12.765Z,23.34
2017-03-09T06:54:26.049Z,23.34
2017-03-09T06:55:39.344Z,23.31
2017-03-09T06:56:52.630Z,23.29
2017-03-09T06:58:05.916Z,23.29
2017-03-09T06:59:18.634Z,23.34
2017-03-09T07:00:31.923Z,23.31
2017-03-09T07:01:45.231Z,23.25
2017-03-09T07:02:57.382Z,23.41
2017-03-09T07:04:10.654Z,23.38
2017-03-09T07:05:23.945Z,23.31
2017-03-09T07:06:36.966Z,23.37
2017-03-09T07:07:50.295Z,23.47
2017-03-09T07:09:03.573Z,23.38
2017-03-09T07:10:16.895Z,23.49
2017-03-09T07:11:30.168Z,23.52
2017-03-09T07:12:43.684Z,23.47
2017-03-09T07:13:56.951Z,23.44
2017-03-09T07:15:10.257Z,23.53
2017-03-09T07:16:23.527Z,23.52
2017-03-09T07:17:50.786Z,23.47
2017-03-09T07:19:04.070Z,23.5
2017-03-09T07:20:16.778Z,23.38
2017-03-09T07:21:29.492Z,23.35
2017-03-09T07:22:42.786Z,23.38
2017-03-09T07:23:55.502Z,23.37
2017-03-09T07:25:22.746Z,23.41
2017-03-09T07:26:50.009Z,23.37
2017-03-09T07:28:03.280Z,23.41
2017-03-09T07:29:15.989Z,23.35
2017-03-09T07:30:28.714Z,23.19
2017-03-09T07:31:41.434Z,23.23
2017-03-09T07:34:21.388Z,23.21
2017-03-09T07:35:34.659Z,23.25
2017-03-09T07:36:47.939Z,23.34
2017-03-09T07:38:01.205Z,23.35
2017-03-09T07:39:14.676Z,23.22
2017-03-09T07:40:27.964Z,23.37
2017-03-09T07:41:41.247Z,23.25
2017-03-09T07:42:54.512Z,23.38
2017-03-09T07:44:07.779Z,23.42
2017-03-09T07:45:21.346Z,23.29
2017-03-09T07:46:34.051Z,23.34
2017-03-09T07:47:47.357Z,23.37
2017-03-09T07:49:00.639Z,23.38
2017-03-09T07:50:13.911Z,23.42
2017-03-09T07:51:27.197Z,23.44
2017-03-09T07:52:53.872Z,23.44
2017-03-09T07:54:07.161Z,23.37
2017-03-09T07:55:20.167Z,23.41
2017-03-09T07:56:32.898Z,23.41
2017-03-09T07:57:46.164Z,23.32
2017-03-09T07:58:58.863Z,23.29
2017-03-09T08:00:12.176Z,23.35
2017-03-09T08:01:24.875Z,23.25
2017-03-09T08:02:37.583Z,23.34
2017-03-09T08:04:04.829Z,23.22
2017-03-09T08:05:32.094Z,23.11
2017-03-09T08:06:45.412Z,23.15
2017-03-09T08:08:12.663Z,23.16
2017-03-09T08:09:25.958Z,23.16
2017-03-09T08:10:39.535Z,23.19
2017-03-09T08:11:52.830Z,22.96
2017-03-09T08:13:06.099Z,23
2017-03-09T08:14:19.372Z,23.11
2017-03-09T08:15:32.086Z,23.11
2017-03-09T08:16:45.566Z,23.12
2017-03-09T08:17:58.870Z,23.18
2017-03-09T08:19:12.149Z,23.22
2017-03-09T08:20:24.854Z,23.29
2017-03-09T08:21:37.869Z,23.34
2017-03-09T08:22:51.153Z,23.38
2017-03-09T08:24:03.876Z,23.42
2017-03-09T08:25:17.162Z,23.44
2017-03-09T08:26:30.442Z,23.35
2017-03-09T08:27:43.174Z,23.39
2017-03-09T08:30:23.163Z,23.41
2017-03-09T08:31:36.676Z,23.41
2017-03-09T08:32:49.941Z,23.44
2017-03-09T08:34:03.230Z,23.44
2017-03-09T08:35:16.507Z,23.42
2017-03-09T08:36:29.820Z,23.41
2017-03-09T08:40:16.767Z,23.41
2017-03-09T08:41:30.070Z,23.38
2017-03-09T08:42:43.362Z,23.35
2017-03-09T08:43:56.631Z,23.38
2017-03-09T08:45:09.937Z,23.35
2017-03-09T08:47:33.362Z,23.18
2017-03-09T08:49:00.818Z,23.09
2017-03-09T08:50:14.110Z,23.19
2017-03-09T08:51:27.401Z,23.15
2017-03-09T08:52:40.694Z,23.01
2017-03-09T08:53:53.451Z,23.09
2017-03-09T08:55:06.918Z,23.07
2017-03-09T08:56:20.200Z,23.11
2017-03-09T08:57:33.491Z,23.21
2017-03-09T08:58:46.790Z,23.19
2017-03-09T09:00:00.266Z,23.22
2017-03-09T09:01:13.561Z,23.15
2017-03-09T09:02:26.858Z,23.23
2017-03-09T09:03:40.143Z,23.14
2017-03-09T09:04:53.433Z,23.26
2017-03-09T09:06:06.342Z,23.23
2017-03-09T09:07:19.614Z,23.15
2017-03-09T09:08:32.895Z,23.15
2017-03-09T09:09:46.204Z,23.07
2017-03-09T09:10:59.790Z,23.04
2017-03-09T09:12:13.067Z,23.06
2017-03-09T09:13:26.358Z,22.84
2017-03-09T09:14:38.544Z,22.88
2017-03-09T09:16:06.100Z,22.88
2017-03-09T09:17:19.374Z,22.85
2017-03-09T09:18:32.648Z,22.85
2017-03-09T09:19:45.387Z,22.88
2017-03-09T09:20:58.663Z,22.93
2017-03-09T09:22:12.156Z,22.78
2017-03-09T09:23:25.435Z,22.89
2017-03-09T09:24:38.708Z,22.75
2017-03-09T09:25:51.415Z,22.85
2017-03-09T09:27:04.687Z,22.97
2017-03-09T09:28:17.966Z,23
2017-03-09T09:29:31.246Z,23.04
2017-03-09T09:30:44.521Z,23.11
2017-03-09T09:31:57.261Z,23.12
2017-03-09T09:33:10.561Z,23.03
2017-03-09T09:34:23.821Z,22.91
2017-03-09T09:35:37.096Z,23.03
2017-03-09T09:36:49.799Z,23.06
2017-03-09T09:38:03.090Z,23.04
2017-03-09T09:39:16.365Z,23.09
2017-03-09T09:40:29.658Z,23.15
2017-03-09T09:41:42.924Z,23.15
2017-03-09T09:42:56.206Z,23.15
2017-03-09T09:44:09.479Z,23.19
2017-03-09T09:45:22.201Z,23.22
2017-03-09T09:46:35.494Z,23.23
2017-03-09T09:47:48.758Z,23.25
2017-03-09T09:49:16.224Z,23.22
2017-03-09T09:50:29.496Z,23.26
2017-03-09T09:51:42.209Z,23.25
2017-03-09T09:52:55.486Z,23.29
2017-03-09T09:54:07.611Z,23.12
2017-03-09T09:55:20.899Z,23.07
2017-03-09T09:56:34.174Z,23.07
2017-03-09T09:57:46.881Z,23.18
2017-03-09T09:58:59.593Z,23.21
2017-03-09T10:00:12.330Z,23.22
2017-03-09T10:01:25.054Z,23.25
2017-03-09T10:02:38.324Z,23.18
2017-03-09T10:03:51.610Z,23.22
2017-03-09T10:05:04.892Z,23.29
2017-03-09T10:06:17.811Z,23.35
2017-03-09T10:07:31.079Z,23.31
2017-03-09T10:08:44.372Z,23.32
2017-03-09T10:09:57.657Z,23.41
2017-03-09T10:11:11.227Z,23.49
2017-03-09T10:12:52.467Z,23.49
2017-03-09T10:14:05.746Z,23.56
2017-03-09T10:15:19.014Z,23.5
2017-03-09T10:16:32.612Z,23.38
2017-03-09T10:17:45.903Z,23.41
2017-03-09T10:18:58.640Z,23.35
2017-03-09T10:20:11.918Z,23.38
2017-03-09T10:21:24.639Z,23.44
2017-03-09T10:22:37.917Z,23.53
2017-03-09T10:23:51.208Z,23.49
2017-03-09T10:25:04.526Z,23.64
2017-03-09T10:26:17.808Z,23.64
2017-03-09T10:27:30.525Z,23.63
2017-03-09T10:28:43.807Z,23.72
2017-03-09T10:29:57.093Z,23.69
2017-03-09T10:31:10.396Z,23.6
2017-03-09T10:32:23.696Z,23.63
2017-03-09T10:33:50.941Z,23.68
2017-03-09T10:35:04.221Z,23.74
2017-03-09T10:36:16.962Z,23.74
2017-03-09T10:38:57.531Z,23.74
2017-03-09T10:40:10.802Z,23.79
2017-03-09T10:41:24.086Z,23.67
2017-03-09T10:42:37.377Z,23.75
2017-03-09T10:43:50.700Z,23.71
2017-03-09T10:45:03.998Z,23.59
2017-03-09T10:46:17.289Z,23.67
2017-03-09T10:47:30.563Z,23.72
2017-03-09T10:48:44.211Z,23.69
2017-03-09T10:49:57.808Z,23.72
2017-03-09T10:51:11.330Z,23.69
2017-03-09T10:52:24.294Z,23.69
2017-03-09T10:53:37.979Z,23.64
2017-03-09T10:54:50.432Z,23.77
2017-03-09T10:56:17.908Z,23.72
2017-03-09T10:57:31.523Z,23.77
2017-03-09T10:58:45.114Z,23.71
2017-03-09T10:59:58.718Z,23.75
2017-03-09T11:01:26.109Z,23.77
2017-03-09T11:02:39.404Z,23.74
2017-03-09T11:03:52.451Z,23.68
2017-03-09T11:05:05.748Z,23.6
2017-03-09T11:06:19.045Z,23.6
2017-03-09T11:07:32.343Z,23.56
2017-03-09T11:08:45.642Z,23.54
2017-03-09T11:09:58.909Z,23.52
2017-03-09T11:11:11.631Z,23.63
2017-03-09T11:12:24.923Z,23.59
2017-03-09T11:13:52.330Z,23.67
2017-03-09T11:15:05.067Z,23.72
2017-03-09T11:16:18.352Z,23.6
2017-03-09T11:17:31.064Z,23.59
2017-03-09T11:18:44.332Z,23.6
2017-03-09T11:19:57.603Z,23.77
2017-03-09T11:21:24.283Z,23.74
2017-03-09T11:22:51.558Z,23.86
2017-03-09T11:24:04.847Z,23.86
2017-03-09T11:25:18.328Z,23.86
2017-03-09T11:26:31.598Z,23.9
2017-03-09T11:27:44.314Z,23.87
2017-03-09T11:28:57.581Z,23.71
2017-03-09T11:30:24.846Z,23.78
2017-03-09T11:31:38.130Z,23.81
2017-03-09T11:32:51.411Z,23.9
2017-03-09T11:34:04.682Z,23.93
2017-03-09T11:35:17.962Z,23.87
2017-03-09T11:36:31.457Z,24.08
2017-03-09T11:37:58.714Z,24.06
2017-03-09T11:39:25.987Z,24.02
2017-03-09T11:40:38.717Z,24.05
2017-03-09T11:41:52.041Z,24.06
2017-03-09T11:43:19.298Z,24.15
2017-03-09T11:44:32.630Z,24.14
2017-03-09T11:45:45.390Z,24.08
2017-03-09T11:46:59.035Z,24.24
2017-03-09T11:48:26.298Z,24.21
2017-03-09T11:49:39.580Z,24.26
2017-03-09T11:50:52.318Z,24.18
2017-03-09T11:52:05.611Z,24.26
2017-03-09T11:54:45.590Z,24.08
2017-03-09T11:55:58.888Z,24.14
2017-03-09T11:57:12.394Z,24.09
2017-03-09T11:58:25.140Z,24.21
2017-03-09T11:59:51.836Z,24.31
2017-03-09T12:01:05.117Z,24.29
2017-03-09T12:02:18.412Z,24.37
2017-03-09T12:03:31.694Z,24.34
2017-03-09T12:04:45.000Z,24.37
2017-03-09T12:05:58.289Z,24.49
2017-03-09T12:07:11.562Z,24.44
2017-03-09T12:08:25.073Z,24.45
2017-03-09T12:09:37.798Z,24.48
2017-03-09T12:10:51.091Z,24.53
2017-03-09T12:12:04.043Z,24.64
2017-03-09T12:13:17.346Z,24.63
2017-03-09T12:14:44.818Z,24.71
2017-03-09T12:16:11.734Z,24.83
2017-03-09T12:17:25.052Z,24.84
2017-03-09T12:18:37.760Z,24.9
2017-03-09T12:19:51.048Z,24.99
2017-03-09T12:21:04.377Z,25.09
2017-03-09T12:22:17.685Z,25.08
2017-03-09T12:23:30.657Z,25.2
2017-03-09T12:24:44.160Z,25.3
2017-03-09T12:25:57.599Z,25.27
2017-03-09T12:27:10.397Z,25.48
2017-03-09T12:28:23.328Z,25.78
2017-03-09T12:29:36.892Z,25.81
2017-03-09T12:30:50.347Z,25.91
2017-03-09T12:32:17.917Z,26.09
2017-03-09T12:33:45.374Z,26.13
2017-03-09T12:35:12.159Z,26.38
2017-03-09T12:36:25.096Z,26.53
2017-03-09T12:37:38.024Z,26.6
2017-03-09T12:38:51.563Z,26.78
2017-03-09T12:40:04.473Z,26.83
2017-03-09T12:41:18.011Z,26.88
2017-03-09T12:42:31.535Z,26.96
2017-03-09T12:43:45.015Z,27.28
2017-03-09T12:44:58.359Z,27.34
2017-03-09T12:46:11.662Z,27.48
2017-03-09T12:47:24.386Z,27.62
2017-03-09T12:48:37.108Z,27.61
2017-03-09T12:49:50.409Z,27.49
2017-03-09T12:51:03.885Z,27.53
2017-03-09T12:52:16.024Z,27.91
2017-03-09T12:53:28.732Z,27.61
2017-03-09T12:54:42.015Z,27.62
2017-03-09T12:55:55.287Z,27.76
2017-03-09T12:57:08.793Z,27.61
2017-03-09T12:58:22.084Z,27.63
2017-03-09T12:59:34.805Z,27.72
2017-03-09T13:00:48.100Z,27.78
2017-03-09T13:02:01.669Z,27.66
2017-03-09T13:03:14.953Z,27.45
2017-03-09T13:04:28.224Z,27.55
2017-03-09T13:05:40.938Z,27.78
2017-03-09T13:06:54.207Z,27.96
2017-03-09T13:08:07.496Z,27.98
2017-03-09T13:09:20.782Z,28.3
2017-03-09T13:10:33.510Z,28.77
2017-03-09T13:12:01.060Z,28.97
2017-03-09T13:13:14.363Z,28.98
2017-03-09T13:15:54.908Z,29.08
2017-03-09T13:17:07.625Z,28.85
2017-03-09T13:18:20.904Z,28.88
2017-03-09T13:19:47.610Z,28.92
2017-03-09T13:21:00.896Z,29.1
2017-03-09T13:22:13.620Z,29.27
2017-03-09T13:23:26.935Z,29.44
2017-03-09T13:26:06.375Z,29.92
2017-03-09T13:27:19.694Z,30.07
2017-03-09T13:28:32.987Z,30.29
2017-03-09T13:30:00.419Z,30.23
2017-03-09T13:31:27.160Z,30.23
2017-03-09T13:32:39.886Z,30.37
2017-03-09T13:33:53.189Z,30.23
2017-03-09T13:35:07.071Z,29.99
2017-03-09T13:36:20.549Z,29.64
2017-03-09T13:37:33.372Z,29.69
2017-03-09T13:38:46.878Z,29.86
2017-03-09T13:40:00.196Z,29.97
2017-03-09T13:41:12.929Z,29.79
2017-03-09T13:42:25.657Z,29.88
2017-03-09T13:43:38.968Z,30.16
2017-03-09T13:44:52.251Z,30.3
2017-03-09T13:47:31.658Z,30.38
2017-03-09T13:48:44.398Z,30.44
2017-03-09T13:49:57.690Z,30.44
2017-03-09T13:51:11.204Z,30.51
2017-03-09T13:52:23.919Z,30.08
2017-03-09T13:55:04.481Z,29.55
2017-03-09T13:56:17.814Z,29.47
2017-03-09T13:57:31.111Z,29.6
2017-03-09T14:00:12.308Z,29.97
2017-03-09T14:01:26.460Z,30.1
2017-03-09T14:02:40.031Z,30.36
2017-03-09T14:03:53.388Z,30.63
2017-03-09T14:06:33.452Z,30.78
2017-03-09T14:10:40.802Z,30.81
2017-03-09T14:11:52.949Z,30.59
2017-03-09T14:13:06.284Z,30.78
2017-03-09T14:14:33.618Z,31.1
2017-03-09T14:15:46.985Z,31.16
2017-03-09T14:17:00.404Z,31.18
2017-03-09T14:18:14.300Z,31.16
2017-03-09T14:19:27.242Z,31.18
2017-03-09T14:20:41.782Z,31.23
2017-03-09T14:21:55.955Z,31.12
2017-03-09T14:23:10.274Z,31.07
2017-03-09T14:24:23.591Z,31.09
2017-03-09T14:25:36.304Z,31.3
2017-03-09T14:26:49.894Z,31.5
2017-03-09T14:28:03.171Z,31.82
2017-03-09T14:29:16.494Z,31.78
2017-03-09T14:30:29.795Z,31.1
2017-03-09T14:31:43.096Z,31.15
2017-03-09T14:32:56.410Z,31.42
2017-03-09T14:34:09.737Z,31.4
2017-03-09T14:35:23.032Z,31.59
2017-03-09T14:36:35.769Z,31.84
2017-03-09T14:37:49.090Z,31.88
2017-03-09T14:39:02.379Z,31.78
2017-03-09T14:40:15.677Z,31.27
2017-03-09T14:41:27.855Z,31.13
2017-03-09T14:42:55.375Z,30.88
2017-03-09T14:44:08.694Z,30.98
2017-03-09T14:45:35.967Z,31.22
2017-03-09T14:46:49.259Z,31.23
2017-03-09T14:48:02.561Z,31.1
2017-03-09T14:49:29.832Z,31.15
2017-03-09T14:50:57.093Z,31.19
2017-03-09T14:52:10.385Z,31.03
2017-03-09T14:54:51.228Z,30.85
2017-03-09T14:56:04.516Z,30.64
2017-03-09T14:57:17.826Z,30.63
2017-03-09T15:00:02.853Z,30.78
2017-03-09T15:01:15.583Z,30.76
2017-03-09T15:02:28.303Z,30.81
2017-03-09T15:04:09.540Z,30.68
2017-03-09T15:05:22.854Z,30.51
2017-03-09T15:06:50.224Z,30.45
2017-03-09T15:08:06.902Z,30.51
2017-03-09T15:09:34.175Z,30.72
2017-03-09T15:10:47.464Z,30.72
2017-03-09T15:12:00.777Z,30.63
2017-03-09T15:13:13.509Z,30.32
2017-03-09T15:14:27.719Z,30.16
2017-03-09T15:15:41.039Z,30.3
2017-03-09T15:16:54.336Z,30.28
2017-03-09T15:18:07.084Z,30.28
2017-03-09T15:19:19.250Z,30.11
2017-03-09T15:20:32.581Z,30.04
2017-03-09T15:21:45.898Z,29.85
2017-03-09T15:22:59.441Z,29.94
2017-03-09T15:24:12.254Z,29.91
2017-03-09T15:25:24.661Z,30.07
2017-03-09T15:26:51.387Z,30.03
2017-03-09T15:28:04.679Z,30.08
2017-03-09T15:29:17.972Z,30.21
2017-03-09T15:30:31.472Z,30.28
2017-03-09T15:31:44.251Z,30.29
2017-03-09T15:33:11.516Z,30.38
2017-03-09T15:34:24.826Z,30.38
2017-03-09T15:35:52.107Z,30.36
2017-03-09T15:37:04.840Z,30.26
2017-03-09T15:38:17.599Z,29.89
2017-03-09T15:39:30.326Z,29.84
2017-03-09T15:40:43.092Z,29.69
2017-03-09T15:42:10.714Z,29.71
2017-03-09T15:43:24.028Z,29.64
2017-03-09T15:44:36.743Z,29.76
2017-03-09T15:45:50.261Z,29.79
2017-03-09T15:47:03.799Z,29.88
2017-03-09T15:48:17.124Z,29.95
2017-03-09T15:49:44.397Z,30.1
2017-03-09T15:50:57.368Z,30.11
2017-03-09T15:52:10.685Z,30.07
2017-03-09T15:53:23.415Z,30.04
2017-03-09T15:54:36.717Z,30.16
2017-03-09T15:55:50.236Z,30.29
2017-03-09T15:57:03.546Z,30.34
2017-03-09T15:58:16.853Z,30.36
2017-03-09T15:59:30.146Z,30.34
2017-03-09T16:00:43.441Z,30.32
2017-03-09T16:01:56.800Z,30.23
2017-03-09T16:03:09.542Z,30.37
2017-03-09T16:04:22.842Z,30.29
2017-03-09T16:05:36.152Z,30.32
2017-03-09T16:06:49.459Z,30.37
2017-03-09T16:08:02.985Z,30.25
2017-03-09T16:09:15.729Z,30.32
2017-03-09T16:10:29.108Z,30.28
2017-03-09T16:11:42.409Z,30.26
2017-03-09T16:12:55.740Z,30.26
2017-03-09T16:14:09.080Z,30.3
2017-03-09T16:15:21.840Z,30.34
2017-03-09T16:16:35.149Z,30.45
2017-03-09T16:17:48.458Z,30.44
2017-03-09T16:19:01.986Z,30.57
2017-03-09T16:20:15.299Z,30.49
2017-03-09T16:21:28.051Z,30.57
2017-03-09T16:22:41.375Z,30.67
2017-03-09T16:23:54.724Z,30.7
2017-03-09T16:25:08.050Z,30.75
2017-03-09T16:26:21.354Z,30.76
2017-03-09T16:27:34.770Z,30.68
2017-03-09T16:28:48.194Z,30.6
2017-03-09T16:30:00.946Z,30.67
2017-03-09T16:31:14.244Z,30.73
2017-03-09T16:32:26.996Z,30.75
2017-03-09T16:33:39.735Z,30.67
2017-03-09T16:34:53.067Z,30.75
2017-03-09T16:36:06.378Z,30.83
2017-03-09T16:37:18.560Z,30.82